Flugplatz Bayreuth

Für EDQD sind keine METAR/TAF Berichte vorhanden.
Es werden die Flugwettermeldungen vom Flugplatz Hof-Plauen in 36 km Entfernung angezeigt.

Prognose für EDQM

vom 06.03. um 17:00 UTC

Am 06.03. zwischen 18:00 UTC und 03:00 UTC

variable Windrichtung mit 3 kt

Sichtweite 10 km oder mehr

keine signifikanten Wettererscheinungen

keine Wolken

TAF EDQM 061700Z 0618/0703 VRB03KT CAVOK
Impressum